Gertrude, Kentucky
Current Conditions -  °F | °C
As of 10:55 PM on Tuesday 27 Jan 2015 (Local Time) from KFGX Reporting Station
Clear Clear  
Wind Chill: 10°   Ceiling: Unl
Heat Index: 19°   Visibility: 10mi
Dew Point: 12°   Wind: 6mph
Humidity: 76%   Direction: 20°NNE
Pressure: 30.24"   Gusts: NA
Location:  38.6516°N, 84.0942°W
Report Text: KFGX 280355Z AUTO 02005KT 10SM CLR M07/M11 A3024 RMK AO2 T10751110
Loading
Personal Weather Stations






























Interactive Weather Map New forecast layout! Learn more

10-Day Weather Forecast

Advertisements
Track Severe Weather on mobile